Terminal Aerodrome Forecast
Issued by NWS Newport/Morehead City, NC

Home | Current Version | Previous Version | Graphics & Text | Print | Product List | Glossary On
Versions: 1 2 3 4 5 6 7 8 9 10 11 12 13 14 15
539
FTUS42 KMHX 180548
TAFEWN
TAF
KEWN 180548Z 1806/1906 VRB03KT P6SM VCSH OVC045
     FM181000 VRB03KT P6SM -TSRA BKN030CB
     FM181500 21005KT P6SM VCTS OVC070CB=

USA.gov is the U.S. government's official web portal to all federal, state and local government web resources and services.